sensor_id;sensor_type;location;lat;lon;timestamp;temperature;humidity
32698;DHT22;19087;51.062;3.754;2023-04-24T00:00:25;10.80;99.90
32698;DHT22;19087;51.062;3.754;2023-04-24T00:02:51;10.80;99.90
32698;DHT22;19087;51.062;3.754;2023-04-24T00:05:17;10.80;99.90
32698;DHT22;19087;51.062;3.754;2023-04-24T00:07:43;10.90;99.90
32698;DHT22;19087;51.062;3.754;2023-04-24T00:10:08;10.90;99.90
32698;DHT22;19087;51.062;3.754;2023-04-24T00:12:35;10.90;99.90
32698;DHT22;19087;51.062;3.754;2023-04-24T00:15:01;11.00;99.90
32698;DHT22;19087;51.062;3.754;2023-04-24T00:17:27;10.90;99.90
32698;DHT22;19087;51.062;3.754;2023-04-24T00:19:53;10.80;99.90
32698;DHT22;19087;51.062;3.754;2023-04-24T00:22:25;10.80;99.90
32698;DHT22;19087;51.062;3.754;2023-04-24T00:24:51;10.80;99.90
32698;DHT22;19087;51.062;3.754;2023-04-24T00:27:17;10.80;99.90
32698;DHT22;19087;51.062;3.754;2023-04-24T00:29:42;10.70;99.90
32698;DHT22;19087;51.062;3.754;2023-04-24T00:32:08;10.70;99.90
32698;DHT22;19087;51.062;3.754;2023-04-24T00:34:33;10.50;99.90
32698;DHT22;19087;51.062;3.754;2023-04-24T00:36:59;10.60;99.90
32698;DHT22;19087;51.062;3.754;2023-04-24T00:39:25;10.60;99.90
32698;DHT22;19087;51.062;3.754;2023-04-24T00:41:51;10.40;99.90
32698;DHT22;19087;51.062;3.754;2023-04-24T00:44:17;10.40;99.90
32698;DHT22;19087;51.062;3.754;2023-04-24T00:46:43;10.40;99.90
32698;DHT22;19087;51.062;3.754;2023-04-24T00:49:09;10.40;99.90
32698;DHT22;19087;51.062;3.754;2023-04-24T00:51:34;10.40;99.90
32698;DHT22;19087;51.062;3.754;2023-04-24T00:54:13;10.60;99.90
32698;DHT22;19087;51.062;3.754;2023-04-24T00:56:39;10.70;99.90
32698;DHT22;19087;51.062;3.754;2023-04-24T00:59:05;10.70;99.90
32698;DHT22;19087;51.062;3.754;2023-04-24T01:01:33;10.80;99.90
32698;DHT22;19087;51.062;3.754;2023-04-24T01:04:00;10.70;99.90
32698;DHT22;19087;51.062;3.754;2023-04-24T01:08:58;10.70;99.90
32698;DHT22;19087;51.062;3.754;2023-04-24T01:11:26;10.60;99.90
32698;DHT22;19087;51.062;3.754;2023-04-24T01:13:52;10.70;99.90
32698;DHT22;19087;51.062;3.754;2023-04-24T01:16:18;10.80;99.90
32698;DHT22;19087;51.062;3.754;2023-04-24T01:18:49;10.70;99.90
32698;DHT22;19087;51.062;3.754;2023-04-24T01:21:20;10.70;99.90
32698;DHT22;19087;51.062;3.754;2023-04-24T01:23:46;10.70;99.90
32698;DHT22;19087;51.062;3.754;2023-04-24T01:26:16;10.70;99.90
32698;DHT22;19087;51.062;3.754;2023-04-24T01:28:42;10.60;99.90
32698;DHT22;19087;51.062;3.754;2023-04-24T01:31:07;10.60;99.90
32698;DHT22;19087;51.062;3.754;2023-04-24T01:33:33;10.60;99.90
32698;DHT22;19087;51.062;3.754;2023-04-24T01:35:59;10.60;99.90
32698;DHT22;19087;51.062;3.754;2023-04-24T01:38:25;10.40;99.90
32698;DHT22;19087;51.062;3.754;2023-04-24T01:40:51;10.30;99.90
32698;DHT22;19087;51.062;3.754;2023-04-24T01:43:18;10.20;99.90
32698;DHT22;19087;51.062;3.754;2023-04-24T01:45:43;10.10;99.90
32698;DHT22;19087;51.062;3.754;2023-04-24T01:48:09;10.10;99.90
32698;DHT22;19087;51.062;3.754;2023-04-24T01:50:35;10.20;99.90
32698;DHT22;19087;51.062;3.754;2023-04-24T01:53:00;10.20;99.90
32698;DHT22;19087;51.062;3.754;2023-04-24T01:55:26;10.30;99.90
32698;DHT22;19087;51.062;3.754;2023-04-24T01:57:52;10.30;99.90
32698;DHT22;19087;51.062;3.754;2023-04-24T02:00:20;10.40;99.90
32698;DHT22;19087;51.062;3.754;2023-04-24T02:02:47;10.40;99.90
32698;DHT22;19087;51.062;3.754;2023-04-24T02:05:12;10.50;99.90
32698;DHT22;19087;51.062;3.754;2023-04-24T02:07:38;10.50;99.90
32698;DHT22;19087;51.062;3.754;2023-04-24T02:10:04;10.50;99.90
32698;DHT22;19087;51.062;3.754;2023-04-24T02:12:30;10.50;99.90
32698;DHT22;19087;51.062;3.754;2023-04-24T02:14:55;10.40;99.90
32698;DHT22;19087;51.062;3.754;2023-04-24T02:17:21;10.30;99.90
32698;DHT22;19087;51.062;3.754;2023-04-24T02:19:47;10.30;99.90
32698;DHT22;19087;51.062;3.754;2023-04-24T02:22:13;10.30;99.90
32698;DHT22;19087;51.062;3.754;2023-04-24T02:24:39;10.20;99.90
32698;DHT22;19087;51.062;3.754;2023-04-24T02:27:04;10.20;99.90
32698;DHT22;19087;51.062;3.754;2023-04-24T02:31:59;10.10;99.90
32698;DHT22;19087;51.062;3.754;2023-04-24T02:34:26;10.10;99.90
32698;DHT22;19087;51.062;3.754;2023-04-24T02:36:52;10.00;99.90
32698;DHT22;19087;51.062;3.754;2023-04-24T02:39:19;10.00;99.90
32698;DHT22;19087;51.062;3.754;2023-04-24T02:41:45;10.00;99.90
32698;DHT22;19087;51.062;3.754;2023-04-24T02:44:11;10.00;99.90
32698;DHT22;19087;51.062;3.754;2023-04-24T02:46:37;10.00;99.90
32698;DHT22;19087;51.062;3.754;2023-04-24T02:49:04;10.00;99.90
32698;DHT22;19087;51.062;3.754;2023-04-24T02:51:30;10.00;99.90
32698;DHT22;19087;51.062;3.754;2023-04-24T02:53:56;10.00;99.90
32698;DHT22;19087;51.062;3.754;2023-04-24T02:56:23;10.10;99.90
32698;DHT22;19087;51.062;3.754;2023-04-24T02:58:49;10.10;99.90
32698;DHT22;19087;51.062;3.754;2023-04-24T03:01:15;10.10;99.90
32698;DHT22;19087;51.062;3.754;2023-04-24T03:03:40;10.00;99.90
32698;DHT22;19087;51.062;3.754;2023-04-24T03:06:06;10.00;99.90
32698;DHT22;19087;51.062;3.754;2023-04-24T03:08:33;10.10;99.90
32698;DHT22;19087;51.062;3.754;2023-04-24T03:11:00;10.10;99.90
32698;DHT22;19087;51.062;3.754;2023-04-24T03:13:25;10.10;99.90
32698;DHT22;19087;51.062;3.754;2023-04-24T03:15:51;10.10;99.90
32698;DHT22;19087;51.062;3.754;2023-04-24T03:18:17;10.20;99.90
32698;DHT22;19087;51.062;3.754;2023-04-24T03:20:44;10.20;99.90
32698;DHT22;19087;51.062;3.754;2023-04-24T03:23:10;10.10;99.90
32698;DHT22;19087;51.062;3.754;2023-04-24T03:25:36;10.10;99.90
32698;DHT22;19087;51.062;3.754;2023-04-24T03:28:02;9.90;99.90
32698;DHT22;19087;51.062;3.754;2023-04-24T03:30:28;9.80;99.90
32698;DHT22;19087;51.062;3.754;2023-04-24T03:32:54;9.80;99.90
32698;DHT22;19087;51.062;3.754;2023-04-24T03:35:19;9.90;99.90
32698;DHT22;19087;51.062;3.754;2023-04-24T03:37:47;10.00;99.90
32698;DHT22;19087;51.062;3.754;2023-04-24T03:40:12;10.00;99.90
32698;DHT22;19087;51.062;3.754;2023-04-24T03:42:38;10.10;99.90
32698;DHT22;19087;51.062;3.754;2023-04-24T03:45:04;10.10;99.90
32698;DHT22;19087;51.062;3.754;2023-04-24T03:47:30;10.00;99.90
32698;DHT22;19087;51.062;3.754;2023-04-24T03:49:55;9.90;99.90
32698;DHT22;19087;51.062;3.754;2023-04-24T03:52:21;9.90;99.90
32698;DHT22;19087;51.062;3.754;2023-04-24T03:54:48;9.90;99.90
32698;DHT22;19087;51.062;3.754;2023-04-24T03:57:13;9.90;99.90
32698;DHT22;19087;51.062;3.754;2023-04-24T03:59:39;10.00;99.90
32698;DHT22;19087;51.062;3.754;2023-04-24T04:02:04;10.00;99.90
32698;DHT22;19087;51.062;3.754;2023-04-24T04:04:30;10.00;99.90
32698;DHT22;19087;51.062;3.754;2023-04-24T04:06:56;9.90;99.90
32698;DHT22;19087;51.062;3.754;2023-04-24T04:09:21;9.90;99.90
32698;DHT22;19087;51.062;3.754;2023-04-24T04:11:47;9.80;99.90
32698;DHT22;19087;51.062;3.754;2023-04-24T04:14:13;9.80;99.90
32698;DHT22;19087;51.062;3.754;2023-04-24T04:16:39;9.90;99.90
32698;DHT22;19087;51.062;3.754;2023-04-24T04:19:06;10.00;99.90
32698;DHT22;19087;51.062;3.754;2023-04-24T04:21:31;9.90;99.90
32698;DHT22;19087;51.062;3.754;2023-04-24T04:23:57;9.90;99.90
32698;DHT22;19087;51.062;3.754;2023-04-24T04:26:23;9.80;99.90
32698;DHT22;19087;51.062;3.754;2023-04-24T04:28:51;9.80;99.90
32698;DHT22;19087;51.062;3.754;2023-04-24T04:31:16;9.90;99.90
32698;DHT22;19087;51.062;3.754;2023-04-24T04:33:43;9.90;99.90
32698;DHT22;19087;51.062;3.754;2023-04-24T04:36:09;10.00;99.90
32698;DHT22;19087;51.062;3.754;2023-04-24T04:38:34;10.00;99.90
32698;DHT22;19087;51.062;3.754;2023-04-24T04:41:00;10.10;99.90
32698;DHT22;19087;51.062;3.754;2023-04-24T04:43:25;10.00;99.90
32698;DHT22;19087;51.062;3.754;2023-04-24T04:45:51;10.00;99.90
32698;DHT22;19087;51.062;3.754;2023-04-24T04:48:17;10.00;99.90
32698;DHT22;19087;51.062;3.754;2023-04-24T04:50:44;10.00;99.90
32698;DHT22;19087;51.062;3.754;2023-04-24T04:53:09;10.10;99.90
32698;DHT22;19087;51.062;3.754;2023-04-24T04:55:35;10.20;99.90
32698;DHT22;19087;51.062;3.754;2023-04-24T04:58:01;10.20;99.90
32698;DHT22;19087;51.062;3.754;2023-04-24T05:00:27;10.20;99.90
32698;DHT22;19087;51.062;3.754;2023-04-24T05:02:54;10.00;99.90
32698;DHT22;19087;51.062;3.754;2023-04-24T05:05:21;10.00;99.90
32698;DHT22;19087;51.062;3.754;2023-04-24T05:07:46;10.00;99.90
32698;DHT22;19087;51.062;3.754;2023-04-24T05:10:12;10.00;99.90
32698;DHT22;19087;51.062;3.754;2023-04-24T05:12:37;9.90;99.90
32698;DHT22;19087;51.062;3.754;2023-04-24T05:15:03;9.90;99.90
32698;DHT22;19087;51.062;3.754;2023-04-24T05:17:29;9.80;99.90
32698;DHT22;19087;51.062;3.754;2023-04-24T05:19:54;9.80;99.90
32698;DHT22;19087;51.062;3.754;2023-04-24T05:22:20;9.80;99.90
32698;DHT22;19087;51.062;3.754;2023-04-24T05:24:46;9.80;99.90
32698;DHT22;19087;51.062;3.754;2023-04-24T05:27:12;9.80;99.90
32698;DHT22;19087;51.062;3.754;2023-04-24T05:29:38;9.70;99.90
32698;DHT22;19087;51.062;3.754;2023-04-24T05:32:04;9.80;99.90
32698;DHT22;19087;51.062;3.754;2023-04-24T05:34:30;9.80;99.90
32698;DHT22;19087;51.062;3.754;2023-04-24T05:36:56;9.80;99.90
32698;DHT22;19087;51.062;3.754;2023-04-24T05:39:21;9.80;99.90
32698;DHT22;19087;51.062;3.754;2023-04-24T05:41:48;9.90;99.90
32698;DHT22;19087;51.062;3.754;2023-04-24T05:44:14;9.90;99.90
32698;DHT22;19087;51.062;3.754;2023-04-24T05:46:39;9.90;99.90
32698;DHT22;19087;51.062;3.754;2023-04-24T05:49:05;10.00;99.90
32698;DHT22;19087;51.062;3.754;2023-04-24T05:51:31;10.10;99.90
32698;DHT22;19087;51.062;3.754;2023-04-24T05:53:57;10.10;99.90
32698;DHT22;19087;51.062;3.754;2023-04-24T05:56:22;10.10;99.90
32698;DHT22;19087;51.062;3.754;2023-04-24T05:58:48;10.00;99.90
32698;DHT22;19087;51.062;3.754;2023-04-24T06:01:14;10.10;99.90
32698;DHT22;19087;51.062;3.754;2023-04-24T06:03:40;10.00;99.90
32698;DHT22;19087;51.062;3.754;2023-04-24T06:06:06;10.10;99.90
32698;DHT22;19087;51.062;3.754;2023-04-24T06:08:32;10.10;99.90
32698;DHT22;19087;51.062;3.754;2023-04-24T06:11:01;10.10;99.90
32698;DHT22;19087;51.062;3.754;2023-04-24T06:13:26;10.20;99.90
32698;DHT22;19087;51.062;3.754;2023-04-24T06:15:52;10.30;99.90
32698;DHT22;19087;51.062;3.754;2023-04-24T06:18:18;10.30;99.90
32698;DHT22;19087;51.062;3.754;2023-04-24T06:20:44;10.40;99.90
32698;DHT22;19087;51.062;3.754;2023-04-24T06:23:10;10.30;99.90
32698;DHT22;19087;51.062;3.754;2023-04-24T06:25:36;10.30;99.90
32698;DHT22;19087;51.062;3.754;2023-04-24T06:28:01;10.40;99.90
32698;DHT22;19087;51.062;3.754;2023-04-24T06:30:27;10.40;99.90
32698;DHT22;19087;51.062;3.754;2023-04-24T06:32:53;10.40;99.90
32698;DHT22;19087;51.062;3.754;2023-04-24T06:35:19;10.60;99.90
32698;DHT22;19087;51.062;3.754;2023-04-24T06:37:46;10.70;99.90
32698;DHT22;19087;51.062;3.754;2023-04-24T06:40:11;11.00;99.90
32698;DHT22;19087;51.062;3.754;2023-04-24T06:42:37;11.30;99.90
32698;DHT22;19087;51.062;3.754;2023-04-24T06:45:03;11.60;99.90
32698;DHT22;19087;51.062;3.754;2023-04-24T06:47:29;11.80;99.90
32698;DHT22;19087;51.062;3.754;2023-04-24T06:49:55;12.00;99.90
32698;DHT22;19087;51.062;3.754;2023-04-24T06:52:20;12.30;99.90
32698;DHT22;19087;51.062;3.754;2023-04-24T06:54:46;12.50;99.90
32698;DHT22;19087;51.062;3.754;2023-04-24T06:57:12;12.50;99.90
32698;DHT22;19087;51.062;3.754;2023-04-24T06:59:37;12.70;99.90
32698;DHT22;19087;51.062;3.754;2023-04-24T07:02:03;13.30;99.90
32698;DHT22;19087;51.062;3.754;2023-04-24T07:04:29;13.60;99.90
32698;DHT22;19087;51.062;3.754;2023-04-24T07:06:55;13.70;99.90
32698;DHT22;19087;51.062;3.754;2023-04-24T07:09:23;13.70;99.90
32698;DHT22;19087;51.062;3.754;2023-04-24T07:11:49;13.60;99.90
32698;DHT22;19087;51.062;3.754;2023-04-24T07:14:15;13.50;99.90
32698;DHT22;19087;51.062;3.754;2023-04-24T07:16:41;13.20;99.90
32698;DHT22;19087;51.062;3.754;2023-04-24T07:19:07;13.00;99.90
32698;DHT22;19087;51.062;3.754;2023-04-24T07:21:32;12.80;99.90
32698;DHT22;19087;51.062;3.754;2023-04-24T07:23:58;12.50;99.90
32698;DHT22;19087;51.062;3.754;2023-04-24T07:26:24;12.30;99.90
32698;DHT22;19087;51.062;3.754;2023-04-24T07:28:50;12.40;99.90
32698;DHT22;19087;51.062;3.754;2023-04-24T07:31:16;12.50;99.90
32698;DHT22;19087;51.062;3.754;2023-04-24T07:33:42;12.50;99.90
32698;DHT22;19087;51.062;3.754;2023-04-24T07:36:07;12.70;99.90
32698;DHT22;19087;51.062;3.754;2023-04-24T07:38:33;12.90;99.90
32698;DHT22;19087;51.062;3.754;2023-04-24T07:40:59;13.00;99.90
32698;DHT22;19087;51.062;3.754;2023-04-24T07:43:24;13.00;99.90
32698;DHT22;19087;51.062;3.754;2023-04-24T07:45:50;13.00;99.90
32698;DHT22;19087;51.062;3.754;2023-04-24T07:48:16;13.10;99.90
32698;DHT22;19087;51.062;3.754;2023-04-24T07:50:43;13.10;99.90
32698;DHT22;19087;51.062;3.754;2023-04-24T07:53:08;12.90;99.90
32698;DHT22;19087;51.062;3.754;2023-04-24T07:55:34;12.90;99.90
32698;DHT22;19087;51.062;3.754;2023-04-24T07:58:00;12.80;99.90
32698;DHT22;19087;51.062;3.754;2023-04-24T08:00:25;12.60;99.90
32698;DHT22;19087;51.062;3.754;2023-04-24T08:02:51;12.70;99.90
32698;DHT22;19087;51.062;3.754;2023-04-24T08:05:16;12.70;99.90
32698;DHT22;19087;51.062;3.754;2023-04-24T08:07:42;12.80;99.90
32698;DHT22;19087;51.062;3.754;2023-04-24T08:10:09;13.30;99.90
32698;DHT22;19087;51.062;3.754;2023-04-24T08:12:35;14.20;99.90
32698;DHT22;19087;51.062;3.754;2023-04-24T08:15:02;15.40;99.90
32698;DHT22;19087;51.062;3.754;2023-04-24T08:17:27;15.90;99.90
32698;DHT22;19087;51.062;3.754;2023-04-24T08:19:53;16.60;99.90
32698;DHT22;19087;51.062;3.754;2023-04-24T08:22:26;17.00;99.90
32698;DHT22;19087;51.062;3.754;2023-04-24T08:24:52;16.90;99.90
32698;DHT22;19087;51.062;3.754;2023-04-24T08:27:18;16.70;99.90
32698;DHT22;19087;51.062;3.754;2023-04-24T08:29:44;16.20;99.90
32698;DHT22;19087;51.062;3.754;2023-04-24T08:32:10;15.80;99.90
32698;DHT22;19087;51.062;3.754;2023-04-24T08:34:35;15.40;99.90
32698;DHT22;19087;51.062;3.754;2023-04-24T08:37:01;15.70;99.90
32698;DHT22;19087;51.062;3.754;2023-04-24T08:39:26;16.50;99.90
32698;DHT22;19087;51.062;3.754;2023-04-24T08:41:52;16.80;99.90
32698;DHT22;19087;51.062;3.754;2023-04-24T08:44:18;16.20;99.90
32698;DHT22;19087;51.062;3.754;2023-04-24T08:46:44;15.90;99.90
32698;DHT22;19087;51.062;3.754;2023-04-24T08:49:13;15.30;99.90
32698;DHT22;19087;51.062;3.754;2023-04-24T08:51:41;15.00;99.90
32698;DHT22;19087;51.062;3.754;2023-04-24T08:54:07;15.00;99.90
32698;DHT22;19087;51.062;3.754;2023-04-24T08:56:33;15.00;99.90
32698;DHT22;19087;51.062;3.754;2023-04-24T08:58:59;15.00;99.90
32698;DHT22;19087;51.062;3.754;2023-04-24T09:01:25;14.80;99.90
32698;DHT22;19087;51.062;3.754;2023-04-24T09:03:50;14.60;99.90
32698;DHT22;19087;51.062;3.754;2023-04-24T09:06:17;14.50;99.90
32698;DHT22;19087;51.062;3.754;2023-04-24T09:08:43;14.40;99.90
32698;DHT22;19087;51.062;3.754;2023-04-24T09:11:09;14.20;99.90
32698;DHT22;19087;51.062;3.754;2023-04-24T09:13:35;14.00;99.90
32698;DHT22;19087;51.062;3.754;2023-04-24T09:16:00;13.80;99.90
32698;DHT22;19087;51.062;3.754;2023-04-24T09:18:26;13.60;99.90
32698;DHT22;19087;51.062;3.754;2023-04-24T09:21:02;13.50;99.90
32698;DHT22;19087;51.062;3.754;2023-04-24T09:23:31;13.70;99.90
32698;DHT22;19087;51.062;3.754;2023-04-24T09:25:57;13.80;99.90
32698;DHT22;19087;51.062;3.754;2023-04-24T09:28:30;13.80;99.90
32698;DHT22;19087;51.062;3.754;2023-04-24T09:31:02;13.90;99.90
32698;DHT22;19087;51.062;3.754;2023-04-24T09:33:28;14.10;99.90
32698;DHT22;19087;51.062;3.754;2023-04-24T09:35:54;14.10;99.90
32698;DHT22;19087;51.062;3.754;2023-04-24T09:38:20;14.20;99.90
32698;DHT22;19087;51.062;3.754;2023-04-24T09:40:55;14.60;99.90
32698;DHT22;19087;51.062;3.754;2023-04-24T09:43:24;14.90;99.90
32698;DHT22;19087;51.062;3.754;2023-04-24T09:45:51;15.20;99.90
32698;DHT22;19087;51.062;3.754;2023-04-24T09:48:20;15.30;99.90
32698;DHT22;19087;51.062;3.754;2023-04-24T09:50:54;15.30;99.90
32698;DHT22;19087;51.062;3.754;2023-04-24T09:53:23;15.50;99.90
32698;DHT22;19087;51.062;3.754;2023-04-24T09:55:50;15.60;99.90
32698;DHT22;19087;51.062;3.754;2023-04-24T09:58:15;15.70;99.90
32698;DHT22;19087;51.062;3.754;2023-04-24T10:00:41;15.50;99.90
32698;DHT22;19087;51.062;3.754;2023-04-24T10:03:07;15.10;99.90
32698;DHT22;19087;51.062;3.754;2023-04-24T10:05:34;15.10;99.90
32698;DHT22;19087;51.062;3.754;2023-04-24T10:08:01;15.00;99.90
32698;DHT22;19087;51.062;3.754;2023-04-24T10:10:28;14.90;99.90
32698;DHT22;19087;51.062;3.754;2023-04-24T10:12:53;15.00;99.90
32698;DHT22;19087;51.062;3.754;2023-04-24T10:15:19;14.90;99.90
32698;DHT22;19087;51.062;3.754;2023-04-24T10:17:47;15.10;99.90
32698;DHT22;19087;51.062;3.754;2023-04-24T10:20:21;15.20;99.90
32698;DHT22;19087;51.062;3.754;2023-04-24T10:22:48;15.00;99.90
32698;DHT22;19087;51.062;3.754;2023-04-24T10:25:16;14.90;99.90
32698;DHT22;19087;51.062;3.754;2023-04-24T10:27:41;14.90;99.90
32698;DHT22;19087;51.062;3.754;2023-04-24T10:30:07;15.00;99.90
32698;DHT22;19087;51.062;3.754;2023-04-24T10:32:33;15.10;99.90
32698;DHT22;19087;51.062;3.754;2023-04-24T10:34:58;15.30;99.90
32698;DHT22;19087;51.062;3.754;2023-04-24T10:37:24;15.60;99.90
32698;DHT22;19087;51.062;3.754;2023-04-24T10:39:51;15.70;99.90
32698;DHT22;19087;51.062;3.754;2023-04-24T10:42:19;15.60;99.90
32698;DHT22;19087;51.062;3.754;2023-04-24T10:44:47;15.80;99.90
32698;DHT22;19087;51.062;3.754;2023-04-24T10:47:13;15.80;99.90
32698;DHT22;19087;51.062;3.754;2023-04-24T10:49:39;15.80;99.90
32698;DHT22;19087;51.062;3.754;2023-04-24T10:52:05;15.90;99.90
32698;DHT22;19087;51.062;3.754;2023-04-24T10:54:41;15.90;99.90
32698;DHT22;19087;51.062;3.754;2023-04-24T10:57:28;16.00;99.90
32698;DHT22;19087;51.062;3.754;2023-04-24T11:00:15;15.90;99.90
32698;DHT22;19087;51.062;3.754;2023-04-24T11:02:41;15.90;99.90
32698;DHT22;19087;51.062;3.754;2023-04-24T11:05:14;15.90;99.90
32698;DHT22;19087;51.062;3.754;2023-04-24T11:10:25;16.00;99.70
32698;DHT22;19087;51.062;3.754;2023-04-24T11:12:51;16.00;99.60
32698;DHT22;19087;51.062;3.754;2023-04-24T11:15:16;16.00;99.90
32698;DHT22;19087;51.062;3.754;2023-04-24T11:17:44;16.00;99.90
32698;DHT22;19087;51.062;3.754;2023-04-24T11:20:11;16.00;99.40
32698;DHT22;19087;51.062;3.754;2023-04-24T11:22:38;15.80;99.60
32698;DHT22;19087;51.062;3.754;2023-04-24T11:25:05;15.80;99.80
32698;DHT22;19087;51.062;3.754;2023-04-24T11:27:38;15.80;99.90
32698;DHT22;19087;51.062;3.754;2023-04-24T11:30:04;15.80;99.90
32698;DHT22;19087;51.062;3.754;2023-04-24T11:34:59;15.30;99.90
32698;DHT22;19087;51.062;3.754;2023-04-24T11:37:26;15.20;99.90
32698;DHT22;19087;51.062;3.754;2023-04-24T11:39:56;15.40;99.90
32698;DHT22;19087;51.062;3.754;2023-04-24T11:42:22;15.20;99.90
32698;DHT22;19087;51.062;3.754;2023-04-24T11:44:49;15.10;99.90
32698;DHT22;19087;51.062;3.754;2023-04-24T11:47:15;15.00;99.90
32698;DHT22;19087;51.062;3.754;2023-04-24T11:49:40;15.10;99.90
32698;DHT22;19087;51.062;3.754;2023-04-24T11:52:06;15.00;99.90
32698;DHT22;19087;51.062;3.754;2023-04-24T11:54:32;14.90;99.90
32698;DHT22;19087;51.062;3.754;2023-04-24T11:56:59;14.70;99.90
32698;DHT22;19087;51.062;3.754;2023-04-24T11:59:29;14.80;99.90
32698;DHT22;19087;51.062;3.754;2023-04-24T12:01:54;15.10;99.90
32698;DHT22;19087;51.062;3.754;2023-04-24T12:04:20;15.40;99.90
32698;DHT22;19087;51.062;3.754;2023-04-24T12:07:01;15.60;99.90
32698;DHT22;19087;51.062;3.754;2023-04-24T12:09:27;15.70;99.90
32698;DHT22;19087;51.062;3.754;2023-04-24T12:11:55;15.60;99.90
32698;DHT22;19087;51.062;3.754;2023-04-24T12:14:24;15.70;98.90
32698;DHT22;19087;51.062;3.754;2023-04-24T12:16:50;15.80;98.60
32698;DHT22;19087;51.062;3.754;2023-04-24T12:19:22;15.80;98.20
32698;DHT22;19087;51.062;3.754;2023-04-24T12:24:56;16.20;98.20
32698;DHT22;19087;51.062;3.754;2023-04-24T12:27:22;16.30;98.00
32698;DHT22;19087;51.062;3.754;2023-04-24T12:30:09;16.60;97.70
32698;DHT22;19087;51.062;3.754;2023-04-24T12:32:40;17.00;97.80
32698;DHT22;19087;51.062;3.754;2023-04-24T12:35:06;17.10;96.30
32698;DHT22;19087;51.062;3.754;2023-04-24T12:37:32;17.10;96.40
32698;DHT22;19087;51.062;3.754;2023-04-24T12:40:11;17.00;96.30
32698;DHT22;19087;51.062;3.754;2023-04-24T12:45:08;16.70;96.10
32698;DHT22;19087;51.062;3.754;2023-04-24T12:47:34;15.90;96.80
32698;DHT22;19087;51.062;3.754;2023-04-24T12:50:00;15.60;97.50
32698;DHT22;19087;51.062;3.754;2023-04-24T12:52:28;15.60;97.90
32698;DHT22;19087;51.062;3.754;2023-04-24T12:54:54;15.30;98.00
32698;DHT22;19087;51.062;3.754;2023-04-24T12:57:20;15.30;97.60
32698;DHT22;19087;51.062;3.754;2023-04-24T12:59:46;15.20;98.00
32698;DHT22;19087;51.062;3.754;2023-04-24T13:02:12;15.20;98.20
32698;DHT22;19087;51.062;3.754;2023-04-24T13:04:38;15.20;97.70
32698;DHT22;19087;51.062;3.754;2023-04-24T13:07:04;15.10;97.50
32698;DHT22;19087;51.062;3.754;2023-04-24T13:09:30;15.20;97.40
32698;DHT22;19087;51.062;3.754;2023-04-24T13:11:56;15.20;97.10
32698;DHT22;19087;51.062;3.754;2023-04-24T13:14:25;15.20;97.60
32698;DHT22;19087;51.062;3.754;2023-04-24T13:16:51;15.10;97.80
32698;DHT22;19087;51.062;3.754;2023-04-24T13:19:17;15.20;97.90
32698;DHT22;19087;51.062;3.754;2023-04-24T13:21:43;15.40;97.70
32698;DHT22;19087;51.062;3.754;2023-04-24T13:24:08;15.50;96.90
32698;DHT22;19087;51.062;3.754;2023-04-24T13:26:35;15.30;96.90
32698;DHT22;19087;51.062;3.754;2023-04-24T13:29:00;15.40;97.40
32698;DHT22;19087;51.062;3.754;2023-04-24T13:31:26;15.60;97.10
32698;DHT22;19087;51.062;3.754;2023-04-24T13:33:51;15.70;97.00
32698;DHT22;19087;51.062;3.754;2023-04-24T13:36:18;15.80;97.20
32698;DHT22;19087;51.062;3.754;2023-04-24T13:38:44;15.90;96.90
32698;DHT22;19087;51.062;3.754;2023-04-24T13:41:09;15.70;97.10
32698;DHT22;19087;51.062;3.754;2023-04-24T13:43:35;15.40;97.70
32698;DHT22;19087;51.062;3.754;2023-04-24T13:46:01;15.30;97.80
32698;DHT22;19087;51.062;3.754;2023-04-24T13:48:29;15.00;98.20
32698;DHT22;19087;51.062;3.754;2023-04-24T13:50:54;14.70;98.10
32698;DHT22;19087;51.062;3.754;2023-04-24T13:53:20;14.60;97.90
32698;DHT22;19087;51.062;3.754;2023-04-24T13:55:46;14.50;97.80
32698;DHT22;19087;51.062;3.754;2023-04-24T13:58:12;14.40;98.30
32698;DHT22;19087;51.062;3.754;2023-04-24T14:00:38;14.30;98.20
32698;DHT22;19087;51.062;3.754;2023-04-24T14:03:04;14.50;98.10
32698;DHT22;19087;51.062;3.754;2023-04-24T14:05:29;14.50;97.80
32698;DHT22;19087;51.062;3.754;2023-04-24T14:07:55;14.80;98.10
32698;DHT22;19087;51.062;3.754;2023-04-24T14:10:20;14.80;98.50
32698;DHT22;19087;51.062;3.754;2023-04-24T14:12:46;14.80;98.70
32698;DHT22;19087;51.062;3.754;2023-04-24T14:15:12;14.80;97.60
32698;DHT22;19087;51.062;3.754;2023-04-24T14:17:39;14.40;97.70
32698;DHT22;19087;51.062;3.754;2023-04-24T14:20:05;14.40;98.00
32698;DHT22;19087;51.062;3.754;2023-04-24T14:22:32;14.60;98.30
32698;DHT22;19087;51.062;3.754;2023-04-24T14:25:01;14.70;98.60
32698;DHT22;19087;51.062;3.754;2023-04-24T14:27:26;14.70;98.70
32698;DHT22;19087;51.062;3.754;2023-04-24T14:29:52;15.00;98.20
32698;DHT22;19087;51.062;3.754;2023-04-24T14:32:17;15.20;96.90
32698;DHT22;19087;51.062;3.754;2023-04-24T14:34:43;15.20;96.60
32698;DHT22;19087;51.062;3.754;2023-04-24T14:37:09;15.00;96.60
32698;DHT22;19087;51.062;3.754;2023-04-24T14:39:34;14.70;97.10
32698;DHT22;19087;51.062;3.754;2023-04-24T14:42:00;14.70;96.90
32698;DHT22;19087;51.062;3.754;2023-04-24T14:44:29;14.70;97.30
32698;DHT22;19087;51.062;3.754;2023-04-24T14:46:54;14.80;97.20
32698;DHT22;19087;51.062;3.754;2023-04-24T14:49:20;14.80;96.60
32698;DHT22;19087;51.062;3.754;2023-04-24T14:51:46;14.90;96.70
32698;DHT22;19087;51.062;3.754;2023-04-24T14:54:11;15.00;96.60
32698;DHT22;19087;51.062;3.754;2023-04-24T14:56:37;15.20;97.10
32698;DHT22;19087;51.062;3.754;2023-04-24T14:59:06;15.50;97.10
32698;DHT22;19087;51.062;3.754;2023-04-24T15:01:32;15.80;95.80
32698;DHT22;19087;51.062;3.754;2023-04-24T15:03:57;15.90;95.80
32698;DHT22;19087;51.062;3.754;2023-04-24T15:06:23;16.00;95.80
32698;DHT22;19087;51.062;3.754;2023-04-24T15:08:50;15.90;95.90
32698;DHT22;19087;51.062;3.754;2023-04-24T15:11:15;16.00;95.30
32698;DHT22;19087;51.062;3.754;2023-04-24T15:13:41;16.20;95.30
32698;DHT22;19087;51.062;3.754;2023-04-24T15:16:07;16.20;95.00
32698;DHT22;19087;51.062;3.754;2023-04-24T15:18:32;16.30;95.00
32698;DHT22;19087;51.062;3.754;2023-04-24T15:20:58;16.30;95.00
32698;DHT22;19087;51.062;3.754;2023-04-24T15:23:24;16.40;94.50
32698;DHT22;19087;51.062;3.754;2023-04-24T15:25:50;16.30;93.90
32698;DHT22;19087;51.062;3.754;2023-04-24T15:28:15;16.30;93.80
32698;DHT22;19087;51.062;3.754;2023-04-24T15:30:43;16.30;93.90
32698;DHT22;19087;51.062;3.754;2023-04-24T15:33:08;16.30;94.40
32698;DHT22;19087;51.062;3.754;2023-04-24T15:35:34;16.20;94.70
32698;DHT22;19087;51.062;3.754;2023-04-24T15:38:00;16.20;95.00
32698;DHT22;19087;51.062;3.754;2023-04-24T15:40:26;16.30;94.50
32698;DHT22;19087;51.062;3.754;2023-04-24T15:42:51;16.40;94.80